createdAt,value
2022-11-30T00:01:19.524Z,87.63
2022-11-30T00:03:46.508Z,85.70
2022-11-30T00:06:16.394Z,90.87
2022-11-30T00:08:43.209Z,78.97
2022-11-30T00:11:14.818Z,80.97
2022-11-30T00:13:42.158Z,84.57
2022-11-30T00:16:09.814Z,86.87
2022-11-30T00:18:37.480Z,87.50
2022-11-30T00:21:06.347Z,78.57
2022-11-30T00:23:34.400Z,83.27
2022-11-30T00:26:05.943Z,84.67
2022-11-30T00:28:33.655Z,82.33
2022-11-30T00:31:02.200Z,80.27
2022-11-30T00:33:29.485Z,86.87
2022-11-30T00:36:01.195Z,89.50
2022-11-30T00:38:27.698Z,89.87
2022-11-30T00:40:54.421Z,87.73
2022-11-30T00:43:21.017Z,91.73
2022-11-30T00:45:47.521Z,83.40
2022-11-30T00:48:13.983Z,82.83
2022-11-30T00:50:40.958Z,86.00
2022-11-30T00:53:07.384Z,92.83
2022-11-30T00:55:33.965Z,86.23
2022-11-30T00:58:01.233Z,81.77
2022-11-30T01:00:28.781Z,82.00
2022-11-30T01:02:56.100Z,92.77
2022-11-30T01:05:22.688Z,84.87
2022-11-30T01:07:49.205Z,88.10
2022-11-30T01:10:15.909Z,95.27
2022-11-30T01:12:42.355Z,87.93
2022-11-30T01:15:09.274Z,88.53
2022-11-30T01:17:35.710Z,79.73
2022-11-30T01:20:02.179Z,91.20
2022-11-30T01:22:29.230Z,89.27
2022-11-30T01:24:55.710Z,91.57
2022-11-30T01:27:22.187Z,93.50
2022-11-30T01:29:48.629Z,97.93
2022-11-30T01:32:15.103Z,85.73
2022-11-30T01:34:41.561Z,90.77
2022-11-30T01:37:08.070Z,94.03
2022-11-30T01:39:34.506Z,91.37
2022-11-30T01:42:01.001Z,97.23
2022-11-30T01:44:27.417Z,86.37
2022-11-30T01:46:59.028Z,91.60
2022-11-30T01:49:41.883Z,90.47
2022-11-30T01:52:19.929Z,97.53
2022-11-30T01:54:51.392Z,94.27
2022-11-30T01:57:25.448Z,93.50
2022-11-30T01:59:55.006Z,105.53
2022-11-30T02:02:32.874Z,91.17
2022-11-30T02:05:00.035Z,98.47
2022-11-30T02:07:27.241Z,87.63
2022-11-30T02:09:53.736Z,94.57
2022-11-30T02:12:39.087Z,93.47
2022-11-30T02:15:11.263Z,89.90
2022-11-30T02:17:57.019Z,94.17
2022-11-30T02:20:55.848Z,89.67
2022-11-30T02:23:32.089Z,87.47
2022-11-30T02:26:19.272Z,90.97
2022-11-30T02:29:06.777Z,88.87
2022-11-30T02:31:41.848Z,100.27
2022-11-30T02:34:10.858Z,88.20
2022-11-30T02:36:37.701Z,89.53
2022-11-30T02:39:05.788Z,89.17
2022-11-30T02:41:38.256Z,86.27
2022-11-30T02:44:06.579Z,94.07
2022-11-30T02:46:44.300Z,83.77
2022-11-30T02:49:25.898Z,84.33
2022-11-30T02:51:55.012Z,87.47
2022-11-30T02:54:21.724Z,90.90
2022-11-30T02:56:48.154Z,86.87
2022-11-30T02:59:14.850Z,95.37
2022-11-30T03:01:42.531Z,87.97
2022-11-30T03:04:09.143Z,86.67
2022-11-30T03:06:35.674Z,88.73
2022-11-30T03:09:02.198Z,99.90
2022-11-30T03:11:28.642Z,96.67
2022-11-30T03:13:55.091Z,91.70
2022-11-30T03:16:21.579Z,93.20
2022-11-30T03:18:48.061Z,92.63
2022-11-30T03:21:14.603Z,98.07
2022-11-30T03:23:41.224Z,94.80
2022-11-30T03:26:09.142Z,95.43
2022-11-30T03:28:36.812Z,98.43
2022-11-30T03:31:03.532Z,90.03
2022-11-30T03:33:30.060Z,95.17
2022-11-30T03:36:07.534Z,94.40
2022-11-30T03:38:34.794Z,98.00
2022-11-30T03:41:02.808Z,93.23
2022-11-30T03:43:29.739Z,89.23
2022-11-30T03:45:56.185Z,102.63
2022-11-30T03:48:23.242Z,103.60
2022-11-30T03:50:50.305Z,99.60
2022-11-30T03:53:21.906Z,105.37
2022-11-30T03:56:00.324Z,102.70
2022-11-30T03:58:27.202Z,101.73
2022-11-30T04:01:07.348Z,100.40
2022-11-30T04:03:34.741Z,104.83
2022-11-30T04:06:02.245Z,99.63
2022-11-30T04:08:29.053Z,92.77
2022-11-30T04:10:57.106Z,93.67
2022-11-30T04:13:24.660Z,99.83
2022-11-30T04:15:52.313Z,102.77
2022-11-30T04:18:20.488Z,101.87
2022-11-30T04:20:47.028Z,110.40
2022-11-30T04:23:13.485Z,105.37
2022-11-30T04:25:41.284Z,107.67
2022-11-30T04:28:08.655Z,102.63
2022-11-30T04:30:36.829Z,103.67
2022-11-30T04:33:04.389Z,95.73
2022-11-30T04:35:30.964Z,107.67
2022-11-30T04:37:57.413Z,118.73
2022-11-30T04:40:23.990Z,113.87
2022-11-30T04:42:50.413Z,104.33
2022-11-30T04:45:16.983Z,95.50
2022-11-30T04:47:43.481Z,102.57
2022-11-30T04:50:12.223Z,105.73
2022-11-30T04:52:38.653Z,110.17
2022-11-30T04:55:05.654Z,108.73
2022-11-30T04:57:32.127Z,104.17
2022-11-30T04:59:58.649Z,108.93
2022-11-30T05:02:25.114Z,101.50
2022-11-30T05:04:51.831Z,125.23
2022-11-30T05:07:18.585Z,115.63
2022-11-30T05:09:45.118Z,110.97
2022-11-30T05:12:11.602Z,94.27
2022-11-30T05:14:38.385Z,105.53
2022-11-30T05:17:04.950Z,102.33
2022-11-30T05:19:31.366Z,113.57
2022-11-30T05:21:57.805Z,109.53
2022-11-30T05:24:24.296Z,112.80
2022-11-30T05:26:50.742Z,110.57
2022-11-30T05:29:17.159Z,112.03
2022-11-30T05:31:43.650Z,117.17
2022-11-30T05:34:10.524Z,100.00
2022-11-30T05:36:36.975Z,115.00
2022-11-30T05:39:03.831Z,110.13
2022-11-30T05:41:30.275Z,103.17
2022-11-30T05:43:56.807Z,107.80
2022-11-30T05:46:23.726Z,111.07
2022-11-30T05:48:50.261Z,110.17
2022-11-30T05:51:18.672Z,111.13
2022-11-30T05:53:45.731Z,117.20
2022-11-30T05:56:15.155Z,119.10
2022-11-30T05:58:41.916Z,121.63
2022-11-30T06:01:16.659Z,119.37
2022-11-30T06:03:43.144Z,115.00
2022-11-30T06:06:09.567Z,118.87
2022-11-30T06:08:35.995Z,131.97
2022-11-30T06:11:02.984Z,104.83
2022-11-30T06:13:29.506Z,118.77
2022-11-30T06:15:59.425Z,111.43
2022-11-30T06:18:26.216Z,111.67
2022-11-30T06:20:52.790Z,116.40
2022-11-30T06:23:19.262Z,117.77
2022-11-30T06:25:45.789Z,111.97
2022-11-30T06:28:13.433Z,108.20
2022-11-30T06:30:39.878Z,104.23
2022-11-30T06:33:06.748Z,116.03
2022-11-30T06:35:33.304Z,108.20
2022-11-30T06:38:00.647Z,110.23
2022-11-30T06:40:27.997Z,116.30
2022-11-30T06:42:54.943Z,121.63
2022-11-30T06:45:21.423Z,113.77
2022-11-30T06:47:47.905Z,124.70
2022-11-30T06:50:15.166Z,118.43
2022-11-30T06:52:41.644Z,122.50
2022-11-30T06:55:08.358Z,119.50
2022-11-30T06:57:35.091Z,122.83
2022-11-30T07:00:01.681Z,127.50
2022-11-30T07:02:28.171Z,105.03
2022-11-30T07:04:54.583Z,113.13
2022-11-30T07:07:21.500Z,114.83
2022-11-30T07:09:48.012Z,99.97
2022-11-30T07:12:14.505Z,109.37
2022-11-30T07:14:40.931Z,100.77
2022-11-30T07:17:07.392Z,106.77
2022-11-30T07:19:37.042Z,96.60
2022-11-30T07:22:03.594Z,102.90
2022-11-30T07:24:48.809Z,100.07
2022-11-30T07:27:15.435Z,96.97
2022-11-30T07:29:41.877Z,105.77
2022-11-30T07:32:08.417Z,94.43
2022-11-30T07:34:34.932Z,106.73
2022-11-30T07:37:01.385Z,97.63
2022-11-30T07:39:27.958Z,95.10
2022-11-30T07:41:54.393Z,93.30
2022-11-30T07:44:20.846Z,93.93
2022-11-30T07:46:47.433Z,90.10
2022-11-30T07:49:13.940Z,84.30
2022-11-30T07:51:40.463Z,82.43
2022-11-30T07:54:07.009Z,87.30
2022-11-30T07:56:33.541Z,88.60
2022-11-30T07:59:01.600Z,87.17
2022-11-30T08:01:31.422Z,78.37
2022-11-30T08:03:58.820Z,89.63
2022-11-30T08:06:27.956Z,87.03
2022-11-30T08:08:57.116Z,81.13
2022-11-30T08:11:26.162Z,85.50
2022-11-30T08:13:53.323Z,82.07
2022-11-30T08:16:32.307Z,71.03
2022-11-30T08:18:58.776Z,66.97
2022-11-30T08:21:25.574Z,72.03
2022-11-30T08:23:56.748Z,78.40
2022-11-30T08:26:26.449Z,70.13
2022-11-30T08:28:53.406Z,72.97
2022-11-30T08:31:39.653Z,69.53
2022-11-30T08:34:09.435Z,68.93
2022-11-30T08:36:35.940Z,66.47
2022-11-30T08:39:05.001Z,66.43
2022-11-30T08:41:32.041Z,75.37
2022-11-30T08:43:58.533Z,68.20
2022-11-30T08:46:50.332Z,60.43
2022-11-30T08:49:21.490Z,64.13
2022-11-30T08:54:46.478Z,58.60
2022-11-30T08:57:17.808Z,65.93
2022-11-30T08:59:44.767Z,63.53
2022-11-30T09:02:14.103Z,65.90
2022-11-30T09:04:40.737Z,58.37
2022-11-30T09:07:07.363Z,57.30
2022-11-30T09:09:33.808Z,59.50
2022-11-30T09:12:00.339Z,63.67
2022-11-30T09:14:26.821Z,55.97
2022-11-30T09:16:54.051Z,57.43
2022-11-30T09:19:21.339Z,59.10
2022-11-30T09:21:51.953Z,59.67
2022-11-30T09:24:18.968Z,52.40
2022-11-30T09:26:45.378Z,58.90
2022-11-30T09:29:11.841Z,53.73
2022-11-30T09:31:38.324Z,50.53
2022-11-30T09:34:04.879Z,50.20
2022-11-30T09:36:32.997Z,54.07
2022-11-30T09:38:59.521Z,51.13
2022-11-30T09:41:28.856Z,51.17
2022-11-30T09:44:20.315Z,51.60
2022-11-30T09:46:53.104Z,50.73
2022-11-30T09:49:24.364Z,48.40
2022-11-30T09:51:52.622Z,51.27
2022-11-30T09:54:35.521Z,46.60
2022-11-30T09:57:12.511Z,49.93
2022-11-30T09:59:46.094Z,50.13
2022-11-30T10:02:18.972Z,49.37
2022-11-30T10:04:45.881Z,47.93
2022-11-30T10:07:26.410Z,52.17
2022-11-30T10:10:30.899Z,45.70
2022-11-30T10:13:15.945Z,53.70
2022-11-30T10:15:58.117Z,52.77
2022-11-30T10:18:54.160Z,56.67
2022-11-30T10:21:32.746Z,49.03
2022-11-30T10:24:05.346Z,48.70
2022-11-30T10:26:38.227Z,46.37
2022-11-30T10:29:17.870Z,51.33
2022-11-30T10:31:46.488Z,44.73
2022-11-30T10:34:20.509Z,48.70
2022-11-30T10:37:12.915Z,48.03
2022-11-30T10:39:57.156Z,46.00
2022-11-30T10:42:35.294Z,49.03
2022-11-30T10:45:04.859Z,46.67
2022-11-30T10:47:37.098Z,48.97
2022-11-30T10:50:06.082Z,48.87
2022-11-30T10:52:42.787Z,43.80
2022-11-30T10:55:21.434Z,47.07
2022-11-30T10:57:51.060Z,45.10
2022-11-30T11:00:18.297Z,48.47
2022-11-30T11:02:46.881Z,46.13
2022-11-30T11:05:25.506Z,51.47
2022-11-30T11:08:06.333Z,47.37
2022-11-30T11:10:45.223Z,50.10
2022-11-30T11:13:39.042Z,46.83
2022-11-30T11:16:09.505Z,46.17
2022-11-30T11:18:37.830Z,47.30
2022-11-30T11:21:07.548Z,47.57
2022-11-30T11:23:39.904Z,58.20
2022-11-30T11:26:22.581Z,51.63
2022-11-30T11:28:51.582Z,42.57
2022-11-30T11:31:44.233Z,51.00
2022-11-30T11:34:31.729Z,42.73
2022-11-30T11:37:31.086Z,47.43
2022-11-30T11:40:05.709Z,44.33
2022-11-30T11:42:36.901Z,48.93
2022-11-30T11:45:06.017Z,42.70
2022-11-30T11:47:40.654Z,39.03
2022-11-30T11:53:23.162Z,44.20
2022-11-30T11:55:57.417Z,45.17
2022-11-30T11:58:34.154Z,42.17
2022-11-30T12:01:31.693Z,42.30
2022-11-30T12:04:17.221Z,41.97
2022-11-30T12:06:45.456Z,42.33
2022-11-30T12:09:19.745Z,40.30
2022-11-30T12:11:48.859Z,39.37
2022-11-30T12:14:19.341Z,38.70
2022-11-30T12:17:15.158Z,44.03
2022-11-30T12:19:59.929Z,46.87
2022-11-30T12:22:51.435Z,42.40
2022-11-30T12:25:36.395Z,44.93
2022-11-30T12:28:11.666Z,45.27
2022-11-30T12:30:41.059Z,44.47
2022-11-30T12:33:39.899Z,43.13
2022-11-30T12:36:48.299Z,49.33
2022-11-30T12:39:41.167Z,43.17
2022-11-30T12:42:18.213Z,42.90
2022-11-30T12:45:11.233Z,46.50
2022-11-30T12:47:53.899Z,47.87
2022-11-30T12:50:54.106Z,53.27
2022-11-30T12:53:20.495Z,50.07
2022-11-30T12:56:06.214Z,51.13
2022-11-30T12:58:47.193Z,80.30
2022-11-30T13:01:37.944Z,68.50
2022-11-30T13:04:28.468Z,48.37
2022-11-30T13:07:25.796Z,52.90
2022-11-30T13:10:00.620Z,56.03
2022-11-30T13:12:37.152Z,54.03
2022-11-30T13:15:15.779Z,53.73
2022-11-30T13:17:43.891Z,59.47
2022-11-30T13:20:36.739Z,55.10
2022-11-30T13:23:15.298Z,58.93
2022-11-30T13:26:07.937Z,60.93
2022-11-30T13:28:41.096Z,56.87
2022-11-30T13:31:28.451Z,63.37
2022-11-30T13:33:55.041Z,66.67
2022-11-30T13:36:23.058Z,65.53
2022-11-30T13:39:29.816Z,62.93
2022-11-30T13:42:02.963Z,70.07
2022-11-30T13:44:32.092Z,76.20
2022-11-30T13:47:00.328Z,65.30
2022-11-30T13:49:33.351Z,67.70
2022-11-30T13:52:22.205Z,67.50
2022-11-30T13:54:51.346Z,63.83
2022-11-30T13:57:30.130Z,73.70
2022-11-30T14:00:31.375Z,69.00
2022-11-30T14:03:21.097Z,74.50
2022-11-30T14:05:53.647Z,83.63
2022-11-30T14:08:22.736Z,85.33
2022-11-30T14:10:51.843Z,85.20
2022-11-30T14:13:22.777Z,80.03
2022-11-30T14:16:29.791Z,83.07
2022-11-30T14:18:57.032Z,96.40
2022-11-30T14:21:32.759Z,85.30
2022-11-30T14:24:04.114Z,82.40
2022-11-30T14:26:37.006Z,93.40
2022-11-30T14:29:09.164Z,93.63
2022-11-30T14:31:58.614Z,93.80
2022-11-30T14:34:32.327Z,91.17
2022-11-30T14:37:03.954Z,97.90
2022-11-30T14:39:37.082Z,87.20
2022-11-30T14:42:05.790Z,91.70
2022-11-30T14:44:40.831Z,90.40
2022-11-30T14:47:16.361Z,93.67
2022-11-30T14:49:56.292Z,92.13
2022-11-30T14:52:44.078Z,94.00
2022-11-30T14:55:29.893Z,87.77
2022-11-30T14:58:18.238Z,101.57
2022-11-30T15:00:45.634Z,97.70
2022-11-30T15:03:28.656Z,90.07
2022-11-30T15:06:00.261Z,93.80
2022-11-30T15:08:34.950Z,100.50
2022-11-30T15:11:06.896Z,106.67
2022-11-30T15:13:37.846Z,86.93
2022-11-30T15:16:09.937Z,101.87
2022-11-30T15:18:39.275Z,98.13
2022-11-30T15:21:17.334Z,101.23
2022-11-30T15:23:50.658Z,97.87
2022-11-30T15:26:33.431Z,95.20
2022-11-30T15:29:22.887Z,96.00
2022-11-30T15:31:52.082Z,100.43
2022-11-30T15:34:44.057Z,96.93
2022-11-30T15:37:11.303Z,96.23
2022-11-30T15:39:38.827Z,90.00
2022-11-30T15:42:06.006Z,100.53
2022-11-30T15:44:41.472Z,97.97
2022-11-30T15:47:31.748Z,102.80
2022-11-30T15:49:58.322Z,106.53
2022-11-30T15:52:27.313Z,97.03
2022-11-30T15:54:55.278Z,95.87
2022-11-30T15:57:24.441Z,98.27
2022-11-30T16:00:24.025Z,99.53
2022-11-30T16:03:07.565Z,98.53
2022-11-30T16:05:34.058Z,97.10
2022-11-30T16:08:03.691Z,93.27
2022-11-30T16:10:36.054Z,97.87
2022-11-30T16:13:02.717Z,88.27
2022-11-30T16:15:31.368Z,91.13
2022-11-30T16:18:15.418Z,89.97
2022-11-30T16:20:43.485Z,85.47
2022-11-30T16:23:15.284Z,97.60
2022-11-30T16:25:43.477Z,90.00
2022-11-30T16:28:11.757Z,86.37
2022-11-30T16:30:39.043Z,90.67
2022-11-30T16:33:05.928Z,83.57
2022-11-30T16:35:38.929Z,88.70
2022-11-30T16:38:05.492Z,83.50
2022-11-30T16:40:37.044Z,89.97
2022-11-30T16:43:05.794Z,92.00
2022-11-30T16:45:36.542Z,87.13
2022-11-30T16:48:03.629Z,82.43
2022-11-30T16:50:32.437Z,86.27
2022-11-30T16:52:59.033Z,86.40
2022-11-30T16:55:30.188Z,85.10
2022-11-30T16:57:57.052Z,93.57
2022-11-30T17:00:23.785Z,85.90
2022-11-30T17:02:59.513Z,89.63
2022-11-30T17:05:27.216Z,96.77
2022-11-30T17:07:54.770Z,89.60
2022-11-30T17:10:21.633Z,136.53
2022-11-30T17:12:48.215Z,100.77
2022-11-30T17:15:17.422Z,92.20
2022-11-30T17:17:43.876Z,96.37
2022-11-30T17:20:11.874Z,104.77
2022-11-30T17:22:39.881Z,105.53
2022-11-30T17:25:09.701Z,103.63
2022-11-30T17:27:36.141Z,108.27
2022-11-30T17:30:02.963Z,116.50
2022-11-30T17:32:29.405Z,104.63
2022-11-30T17:34:55.866Z,113.43
2022-11-30T17:37:23.168Z,112.10
2022-11-30T17:39:50.510Z,115.17
2022-11-30T17:42:16.931Z,119.73
2022-11-30T17:44:43.388Z,119.70
2022-11-30T17:47:10.019Z,113.27
2022-11-30T17:49:36.507Z,122.63
2022-11-30T17:52:02.968Z,137.27
2022-11-30T17:54:29.518Z,123.70
2022-11-30T17:56:55.992Z,129.07
2022-11-30T17:59:22.491Z,128.23
2022-11-30T18:01:49.029Z,127.20
2022-11-30T18:04:16.005Z,130.07
2022-11-30T18:06:42.690Z,124.60
2022-11-30T18:09:09.225Z,122.60
2022-11-30T18:11:36.381Z,123.57
2022-11-30T18:14:05.442Z,131.13
2022-11-30T18:16:36.441Z,120.93
2022-11-30T18:19:11.671Z,123.67
2022-11-30T18:21:40.321Z,120.33
2022-11-30T18:24:07.226Z,117.80
2022-11-30T18:26:35.613Z,116.30
2022-11-30T18:29:02.948Z,112.33
2022-11-30T18:31:30.848Z,111.30
2022-11-30T18:34:03.121Z,113.27
2022-11-30T18:36:30.915Z,110.53
2022-11-30T18:38:57.421Z,108.77
2022-11-30T18:41:26.461Z,106.10
2022-11-30T18:43:53.658Z,114.03
2022-11-30T18:46:20.434Z,114.07
2022-11-30T18:48:51.792Z,105.43
2022-11-30T18:51:20.804Z,102.00
2022-11-30T18:53:47.659Z,94.67
2022-11-30T18:56:18.323Z,99.80
2022-11-30T18:58:45.840Z,105.03
2022-11-30T19:01:18.325Z,99.23
2022-11-30T19:03:53.697Z,95.73
2022-11-30T19:06:20.723Z,100.40
2022-11-30T19:08:48.130Z,93.60
2022-11-30T19:11:16.194Z,100.80
2022-11-30T19:13:43.307Z,104.60
2022-11-30T19:16:14.019Z,97.83
2022-11-30T19:18:40.917Z,99.47
2022-11-30T19:21:13.627Z,93.00
2022-11-30T19:23:40.735Z,88.50
2022-11-30T19:26:09.865Z,98.17
2022-11-30T19:28:37.739Z,91.67
2022-11-30T19:31:18.916Z,97.93
2022-11-30T19:33:47.682Z,95.03
2022-11-30T19:36:17.631Z,94.97
2022-11-30T19:38:44.365Z,100.23
2022-11-30T19:41:13.153Z,94.97
2022-11-30T19:43:40.346Z,98.50
2022-11-30T19:46:14.534Z,100.57
2022-11-30T19:48:41.988Z,95.37
2022-11-30T19:51:14.956Z,97.00
2022-11-30T19:53:44.267Z,100.80
2022-11-30T19:56:14.918Z,92.67
2022-11-30T19:58:45.907Z,93.10
2022-11-30T20:01:19.539Z,87.13
2022-11-30T20:03:46.224Z,92.53
2022-11-30T20:06:12.778Z,88.90
2022-11-30T20:08:39.357Z,91.03
2022-11-30T20:11:10.441Z,103.77
2022-11-30T20:13:37.505Z,88.10
2022-11-30T20:16:13.469Z,90.37
2022-11-30T20:18:45.724Z,87.23
2022-11-30T20:21:18.538Z,90.60
2022-11-30T20:23:47.208Z,91.27
2022-11-30T20:26:18.239Z,96.33
2022-11-30T20:28:46.071Z,90.27
2022-11-30T20:31:14.778Z,85.87
2022-11-30T20:33:42.113Z,87.83
2022-11-30T20:36:10.348Z,94.60
2022-11-30T20:38:37.409Z,94.50
2022-11-30T20:41:04.582Z,87.23
2022-11-30T20:43:31.253Z,84.30
2022-11-30T20:45:57.759Z,89.77
2022-11-30T20:48:24.327Z,92.37
2022-11-30T20:51:21.678Z,90.60
2022-11-30T20:53:37.460Z,88.77
2022-11-30T20:56:04.122Z,86.87
2022-11-30T20:58:30.978Z,91.00
2022-11-30T21:00:59.249Z,85.07
2022-11-30T21:03:26.151Z,91.90
2022-11-30T21:05:52.668Z,94.63
2022-11-30T21:08:19.122Z,89.63
2022-11-30T21:10:45.588Z,87.77
2022-11-30T21:13:12.038Z,92.40
2022-11-30T21:15:38.528Z,89.10
2022-11-30T21:18:05.354Z,91.07
2022-11-30T21:20:31.853Z,90.47
2022-11-30T21:22:58.279Z,92.70
2022-11-30T21:25:24.710Z,91.70
2022-11-30T21:27:52.243Z,84.20
2022-11-30T21:30:18.898Z,89.97
2022-11-30T21:32:45.349Z,86.13
2022-11-30T21:35:11.821Z,88.23
2022-11-30T21:37:38.286Z,91.70
2022-11-30T21:40:05.229Z,88.10
2022-11-30T21:42:31.651Z,88.57
2022-11-30T21:44:58.066Z,91.03
2022-11-30T21:47:24.536Z,86.67
2022-11-30T21:49:51.015Z,82.40
2022-11-30T21:52:17.455Z,93.20
2022-11-30T21:54:43.905Z,92.47
2022-11-30T21:57:10.453Z,92.57
2022-11-30T21:59:36.910Z,88.77
2022-11-30T22:02:04.222Z,88.97
2022-11-30T22:04:30.773Z,81.50
2022-11-30T22:06:57.307Z,92.57
2022-11-30T22:09:23.702Z,85.33
2022-11-30T22:11:50.191Z,89.07
2022-11-30T22:14:17.610Z,94.53
2022-11-30T22:16:44.920Z,90.87
2022-11-30T22:19:11.411Z,85.03
2022-11-30T22:21:38.243Z,84.80
2022-11-30T22:24:07.766Z,85.57
2022-11-30T22:26:36.670Z,86.90
2022-11-30T22:29:08.538Z,87.50
2022-11-30T22:31:37.911Z,87.27
2022-11-30T22:34:04.591Z,92.50
2022-11-30T22:36:33.293Z,82.90
2022-11-30T22:39:02.290Z,87.70
2022-11-30T22:41:30.002Z,85.77
2022-11-30T22:43:57.797Z,87.80
2022-11-30T22:46:26.621Z,81.87
2022-11-30T22:48:53.225Z,87.37
2022-11-30T22:51:22.630Z,86.10
2022-11-30T22:53:49.964Z,83.07
2022-11-30T22:56:25.212Z,84.53
2022-11-30T22:58:54.347Z,80.23
2022-11-30T23:01:22.785Z,82.70
2022-11-30T23:03:50.609Z,83.20
2022-11-30T23:06:19.394Z,83.90
2022-11-30T23:08:47.016Z,87.93
2022-11-30T23:11:16.949Z,83.23
2022-11-30T23:13:43.521Z,80.53
2022-11-30T23:16:11.475Z,86.90
2022-11-30T23:18:40.658Z,78.27
2022-11-30T23:21:09.702Z,81.73
2022-11-30T23:23:36.347Z,80.57
2022-11-30T23:26:22.878Z,80.83
2022-11-30T23:28:51.893Z,83.67
2022-11-30T23:31:34.313Z,79.30
2022-11-30T23:34:04.896Z,84.07
2022-11-30T23:36:32.109Z,79.07
2022-11-30T23:39:01.445Z,78.57
2022-11-30T23:41:28.384Z,81.17
2022-11-30T23:43:55.312Z,91.37
2022-11-30T23:46:22.414Z,80.70
2022-11-30T23:48:49.204Z,85.03
2022-11-30T23:51:15.746Z,75.97
2022-11-30T23:53:42.487Z,80.23
2022-11-30T23:56:13.134Z,82.37
2022-11-30T23:58:39.792Z,86.73
